Bessemer, Michigan
Current Conditions -  °F | °C
As of 8:35 AM on Monday 26 Jan 2015 (Local Time) from KIWD Reporting Station
Overcast Overcast  
Wind Chill: 18°   Ceiling: 3200
Heat Index: 18°   Visibility: 3mi
Dew Point: 16°   Wind: 0mph
Humidity: 93%   Direction: NA
Pressure: 29.68"   Gusts: NA
Location:  46.48°N, 90.05°W
Report Text: KIWD 261435Z AUTO 00000KT 3SM OVC032 M08/M09 A2968 RMK AO1
Loading
Personal Weather Stations






























Interactive Weather Map New forecast layout! Learn more

10-Day Weather Forecast

Advertisements
Track Severe Weather on mobile